Airport View

Enter AWOS ICAO identifier for current METAR.

ex. KFNL

KFFT 261153Z AUTO 22006KT 10SM CLR 22/18 A3013 RMK AO2 SLP194 T02170183 10217 20172 51008 $

26 Jun 2019 12:19

Frequency: 119.275

Phone: 502-227-5087

Other Area AWOS: KLEX - KLOU - KBRY - K6I2

TAF KLEX 261120Z 2612/2712 19005KT P6SM FEW250 FM261400 22007KT P6SM FEW040 FM270100 20004KT P6SM SCT250